sensor_id;sensor_type;location;lat;lon;timestamp;P1;durP1;ratioP1;P2;durP2;ratioP2
295;SDS011;132;48.770;9.200;2022-07-25T00:00:27;11.13;;;9.80;;
295;SDS011;132;48.770;9.200;2022-07-25T00:03:14;13.67;;;9.90;;
295;SDS011;132;48.770;9.200;2022-07-25T00:06:01;13.17;;;9.87;;
295;SDS011;132;48.770;9.200;2022-07-25T00:08:47;14.60;;;11.20;;
295;SDS011;132;48.770;9.200;2022-07-25T00:11:34;13.80;;;10.00;;
295;SDS011;132;48.770;9.200;2022-07-25T00:14:21;12.23;;;10.33;;
295;SDS011;132;48.770;9.200;2022-07-25T00:17:07;14.00;;;10.40;;
295;SDS011;132;48.770;9.200;2022-07-25T00:19:54;17.80;;;11.70;;
295;SDS011;132;48.770;9.200;2022-07-25T00:22:40;14.63;;;11.07;;
295;SDS011;132;48.770;9.200;2022-07-25T00:25:27;15.40;;;11.00;;
295;SDS011;132;48.770;9.200;2022-07-25T00:28:14;14.83;;;11.00;;
295;SDS011;132;48.770;9.200;2022-07-25T00:31:00;13.10;;;10.43;;
295;SDS011;132;48.770;9.200;2022-07-25T00:33:47;12.93;;;10.50;;
295;SDS011;132;48.770;9.200;2022-07-25T00:36:34;12.13;;;9.57;;
295;SDS011;132;48.770;9.200;2022-07-25T00:39:21;13.83;;;10.30;;
295;SDS011;132;48.770;9.200;2022-07-25T00:42:07;11.90;;;9.87;;
295;SDS011;132;48.770;9.200;2022-07-25T00:44:54;12.27;;;10.07;;
295;SDS011;132;48.770;9.200;2022-07-25T00:47:41;11.97;;;9.77;;
295;SDS011;132;48.770;9.200;2022-07-25T00:50:28;12.13;;;10.00;;
295;SDS011;132;48.770;9.200;2022-07-25T00:53:15;11.57;;;9.57;;
295;SDS011;132;48.770;9.200;2022-07-25T00:56:02;12.60;;;9.80;;
295;SDS011;132;48.770;9.200;2022-07-25T00:58:50;12.70;;;9.97;;
295;SDS011;132;48.770;9.200;2022-07-25T01:01:37;14.20;;;10.77;;
295;SDS011;132;48.770;9.200;2022-07-25T01:04:24;12.83;;;10.20;;
295;SDS011;132;48.770;9.200;2022-07-25T01:07:10;13.30;;;10.47;;
295;SDS011;132;48.770;9.200;2022-07-25T01:09:58;12.87;;;10.30;;
295;SDS011;132;48.770;9.200;2022-07-25T01:15:36;12.63;;;9.70;;
295;SDS011;132;48.770;9.200;2022-07-25T01:18:23;12.37;;;9.43;;
295;SDS011;132;48.770;9.200;2022-07-25T01:21:09;11.97;;;9.60;;
295;SDS011;132;48.770;9.200;2022-07-25T01:23:56;11.60;;;9.23;;
295;SDS011;132;48.770;9.200;2022-07-25T01:26:42;11.90;;;9.93;;
295;SDS011;132;48.770;9.200;2022-07-25T01:29:29;10.57;;;9.00;;
295;SDS011;132;48.770;9.200;2022-07-25T01:32:16;12.30;;;9.67;;
295;SDS011;132;48.770;9.200;2022-07-25T01:35:06;15.87;;;9.63;;
295;SDS011;132;48.770;9.200;2022-07-25T01:37:53;11.80;;;9.97;;
295;SDS011;132;48.770;9.200;2022-07-25T01:40:40;15.53;;;9.83;;
295;SDS011;132;48.770;9.200;2022-07-25T01:43:28;12.07;;;9.20;;
295;SDS011;132;48.770;9.200;2022-07-25T01:46:14;11.70;;;9.90;;
295;SDS011;132;48.770;9.200;2022-07-25T01:49:01;10.13;;;9.07;;
295;SDS011;132;48.770;9.200;2022-07-25T01:51:48;13.70;;;9.80;;
295;SDS011;132;48.770;9.200;2022-07-25T01:54:34;15.80;;;10.33;;
295;SDS011;132;48.770;9.200;2022-07-25T01:57:21;11.33;;;10.30;;
295;SDS011;132;48.770;9.200;2022-07-25T02:00:09;11.63;;;9.57;;
295;SDS011;132;48.770;9.200;2022-07-25T02:02:58;12.93;;;10.43;;
295;SDS011;132;48.770;9.200;2022-07-25T02:06:04;12.27;;;9.87;;
295;SDS011;132;48.770;9.200;2022-07-25T02:08:52;11.50;;;10.10;;
295;SDS011;132;48.770;9.200;2022-07-25T02:11:39;11.57;;;9.93;;
295;SDS011;132;48.770;9.200;2022-07-25T02:14:26;12.50;;;9.90;;
295;SDS011;132;48.770;9.200;2022-07-25T02:17:13;12.77;;;9.90;;
295;SDS011;132;48.770;9.200;2022-07-25T02:20:00;13.10;;;10.27;;
295;SDS011;132;48.770;9.200;2022-07-25T02:22:46;14.00;;;10.60;;
295;SDS011;132;48.770;9.200;2022-07-25T02:25:33;14.00;;;10.40;;
295;SDS011;132;48.770;9.200;2022-07-25T02:28:20;12.73;;;10.50;;
295;SDS011;132;48.770;9.200;2022-07-25T02:31:06;19.27;;;10.83;;
295;SDS011;132;48.770;9.200;2022-07-25T02:33:53;14.97;;;10.77;;
295;SDS011;132;48.770;9.200;2022-07-25T02:36:40;13.80;;;10.00;;
295;SDS011;132;48.770;9.200;2022-07-25T02:39:27;13.00;;;10.00;;
295;SDS011;132;48.770;9.200;2022-07-25T02:42:14;11.10;;;9.33;;
295;SDS011;132;48.770;9.200;2022-07-25T02:45:00;14.83;;;10.23;;
295;SDS011;132;48.770;9.200;2022-07-25T02:47:47;10.97;;;8.87;;
295;SDS011;132;48.770;9.200;2022-07-25T02:50:34;14.80;;;9.60;;
295;SDS011;132;48.770;9.200;2022-07-25T02:53:21;13.50;;;10.00;;
295;SDS011;132;48.770;9.200;2022-07-25T02:56:08;12.77;;;9.77;;
295;SDS011;132;48.770;9.200;2022-07-25T02:58:54;10.60;;;9.60;;
295;SDS011;132;48.770;9.200;2022-07-25T03:01:41;19.23;;;9.90;;
295;SDS011;132;48.770;9.200;2022-07-25T03:04:28;12.90;;;9.57;;
295;SDS011;132;48.770;9.200;2022-07-25T03:07:15;12.13;;;10.00;;
295;SDS011;132;48.770;9.200;2022-07-25T03:10:03;13.63;;;9.83;;
295;SDS011;132;48.770;9.200;2022-07-25T03:12:51;12.93;;;9.03;;
295;SDS011;132;48.770;9.200;2022-07-25T03:15:37;12.53;;;9.30;;
295;SDS011;132;48.770;9.200;2022-07-25T03:18:24;13.10;;;10.20;;
295;SDS011;132;48.770;9.200;2022-07-25T03:21:11;14.40;;;10.23;;
295;SDS011;132;48.770;9.200;2022-07-25T03:23:58;14.93;;;10.70;;
295;SDS011;132;48.770;9.200;2022-07-25T03:26:44;20.97;;;10.73;;
295;SDS011;132;48.770;9.200;2022-07-25T03:29:31;13.70;;;9.70;;
295;SDS011;132;48.770;9.200;2022-07-25T03:32:17;13.17;;;10.00;;
295;SDS011;132;48.770;9.200;2022-07-25T03:35:04;13.53;;;10.30;;
295;SDS011;132;48.770;9.200;2022-07-25T03:37:52;14.90;;;9.80;;
295;SDS011;132;48.770;9.200;2022-07-25T03:40:39;12.53;;;9.70;;
295;SDS011;132;48.770;9.200;2022-07-25T03:43:25;12.27;;;10.27;;
295;SDS011;132;48.770;9.200;2022-07-25T03:46:12;11.37;;;10.07;;
295;SDS011;132;48.770;9.200;2022-07-25T03:48:59;14.67;;;9.63;;
295;SDS011;132;48.770;9.200;2022-07-25T03:51:46;12.90;;;9.70;;
295;SDS011;132;48.770;9.200;2022-07-25T03:54:32;11.03;;;10.00;;
295;SDS011;132;48.770;9.200;2022-07-25T03:57:19;14.90;;;9.97;;
295;SDS011;132;48.770;9.200;2022-07-25T04:00:07;12.73;;;10.20;;
295;SDS011;132;48.770;9.200;2022-07-25T04:02:54;13.70;;;9.50;;
295;SDS011;132;48.770;9.200;2022-07-25T04:05:41;13.23;;;10.50;;
295;SDS011;132;48.770;9.200;2022-07-25T04:08:28;13.53;;;10.30;;
295;SDS011;132;48.770;9.200;2022-07-25T04:11:15;12.87;;;10.03;;
295;SDS011;132;48.770;9.200;2022-07-25T04:14:01;15.60;;;10.30;;
295;SDS011;132;48.770;9.200;2022-07-25T04:16:48;11.20;;;9.20;;
295;SDS011;132;48.770;9.200;2022-07-25T04:19:35;13.93;;;10.43;;
295;SDS011;132;48.770;9.200;2022-07-25T04:22:21;13.67;;;9.60;;
295;SDS011;132;48.770;9.200;2022-07-25T04:25:08;12.57;;;9.80;;
295;SDS011;132;48.770;9.200;2022-07-25T04:27:54;16.53;;;9.63;;
295;SDS011;132;48.770;9.200;2022-07-25T04:30:41;11.73;;;9.47;;
295;SDS011;132;48.770;9.200;2022-07-25T04:33:30;12.70;;;9.60;;
295;SDS011;132;48.770;9.200;2022-07-25T04:36:17;12.83;;;10.00;;
295;SDS011;132;48.770;9.200;2022-07-25T04:39:03;12.93;;;9.43;;
295;SDS011;132;48.770;9.200;2022-07-25T04:41:50;12.30;;;10.30;;
295;SDS011;132;48.770;9.200;2022-07-25T04:44:36;13.47;;;10.03;;
295;SDS011;132;48.770;9.200;2022-07-25T04:47:23;12.83;;;9.27;;
295;SDS011;132;48.770;9.200;2022-07-25T04:50:10;11.87;;;9.67;;
295;SDS011;132;48.770;9.200;2022-07-25T04:52:57;12.63;;;9.93;;
295;SDS011;132;48.770;9.200;2022-07-25T04:55:43;11.53;;;9.80;;
295;SDS011;132;48.770;9.200;2022-07-25T04:58:30;12.93;;;10.00;;
295;SDS011;132;48.770;9.200;2022-07-25T05:01:17;11.00;;;9.30;;
295;SDS011;132;48.770;9.200;2022-07-25T05:04:13;12.20;;;10.40;;
295;SDS011;132;48.770;9.200;2022-07-25T05:06:59;13.30;;;9.83;;
295;SDS011;132;48.770;9.200;2022-07-25T05:09:46;13.23;;;9.60;;
295;SDS011;132;48.770;9.200;2022-07-25T05:12:33;11.93;;;9.90;;
295;SDS011;132;48.770;9.200;2022-07-25T05:15:19;12.37;;;9.13;;
295;SDS011;132;48.770;9.200;2022-07-25T05:18:07;12.60;;;9.60;;
295;SDS011;132;48.770;9.200;2022-07-25T05:20:54;12.90;;;9.30;;
295;SDS011;132;48.770;9.200;2022-07-25T05:23:40;12.60;;;9.37;;
295;SDS011;132;48.770;9.200;2022-07-25T05:26:27;11.03;;;9.23;;
295;SDS011;132;48.770;9.200;2022-07-25T05:29:14;11.80;;;10.00;;
295;SDS011;132;48.770;9.200;2022-07-25T05:32:00;14.90;;;10.40;;
295;SDS011;132;48.770;9.200;2022-07-25T05:34:47;11.80;;;10.20;;
295;SDS011;132;48.770;9.200;2022-07-25T05:37:34;14.77;;;10.10;;
295;SDS011;132;48.770;9.200;2022-07-25T05:40:22;17.60;;;10.07;;
295;SDS011;132;48.770;9.200;2022-07-25T05:43:09;12.70;;;9.90;;
295;SDS011;132;48.770;9.200;2022-07-25T05:46:02;12.90;;;9.87;;
295;SDS011;132;48.770;9.200;2022-07-25T05:48:49;15.47;;;10.97;;
295;SDS011;132;48.770;9.200;2022-07-25T05:51:36;12.47;;;9.93;;
295;SDS011;132;48.770;9.200;2022-07-25T05:54:22;13.00;;;10.43;;
295;SDS011;132;48.770;9.200;2022-07-25T05:57:09;13.20;;;9.90;;
295;SDS011;132;48.770;9.200;2022-07-25T05:59:56;14.50;;;10.30;;
295;SDS011;132;48.770;9.200;2022-07-25T06:02:42;14.77;;;10.93;;
295;SDS011;132;48.770;9.200;2022-07-25T06:05:29;14.13;;;10.87;;
295;SDS011;132;48.770;9.200;2022-07-25T06:08:16;14.00;;;10.80;;
295;SDS011;132;48.770;9.200;2022-07-25T06:11:03;14.00;;;10.93;;
295;SDS011;132;48.770;9.200;2022-07-25T06:13:51;14.27;;;10.97;;
295;SDS011;132;48.770;9.200;2022-07-25T06:16:37;15.67;;;10.73;;
295;SDS011;132;48.770;9.200;2022-07-25T06:19:24;14.60;;;11.40;;
295;SDS011;132;48.770;9.200;2022-07-25T06:22:10;16.80;;;10.87;;
295;SDS011;132;48.770;9.200;2022-07-25T06:25:00;23.60;;;15.87;;
295;SDS011;132;48.770;9.200;2022-07-25T06:27:47;16.97;;;12.13;;
295;SDS011;132;48.770;9.200;2022-07-25T06:30:34;19.33;;;11.00;;
295;SDS011;132;48.770;9.200;2022-07-25T06:33:20;15.10;;;11.27;;
295;SDS011;132;48.770;9.200;2022-07-25T06:36:07;14.97;;;10.97;;
295;SDS011;132;48.770;9.200;2022-07-25T06:38:54;13.50;;;11.37;;
295;SDS011;132;48.770;9.200;2022-07-25T06:41:40;15.10;;;11.03;;
295;SDS011;132;48.770;9.200;2022-07-25T06:44:27;14.73;;;11.00;;
295;SDS011;132;48.770;9.200;2022-07-25T06:47:14;16.17;;;10.90;;
295;SDS011;132;48.770;9.200;2022-07-25T06:50:00;15.47;;;10.47;;
295;SDS011;132;48.770;9.200;2022-07-25T06:52:47;12.90;;;10.40;;
295;SDS011;132;48.770;9.200;2022-07-25T06:55:34;12.87;;;9.80;;
295;SDS011;132;48.770;9.200;2022-07-25T06:58:20;14.07;;;9.50;;
295;SDS011;132;48.770;9.200;2022-07-25T07:01:07;16.10;;;9.87;;
295;SDS011;132;48.770;9.200;2022-07-25T07:03:54;15.77;;;9.57;;
295;SDS011;132;48.770;9.200;2022-07-25T07:06:40;17.43;;;9.77;;
295;SDS011;132;48.770;9.200;2022-07-25T07:09:27;11.60;;;9.63;;
295;SDS011;132;48.770;9.200;2022-07-25T07:12:14;12.53;;;9.97;;
295;SDS011;132;48.770;9.200;2022-07-25T07:15:00;12.73;;;9.60;;
295;SDS011;132;48.770;9.200;2022-07-25T07:17:47;17.30;;;9.90;;
295;SDS011;132;48.770;9.200;2022-07-25T07:20:34;13.17;;;9.83;;
295;SDS011;132;48.770;9.200;2022-07-25T07:23:20;11.90;;;10.10;;
295;SDS011;132;48.770;9.200;2022-07-25T07:26:07;14.50;;;10.70;;
295;SDS011;132;48.770;9.200;2022-07-25T07:28:54;12.80;;;9.97;;
295;SDS011;132;48.770;9.200;2022-07-25T07:31:41;11.60;;;9.87;;
295;SDS011;132;48.770;9.200;2022-07-25T07:34:27;11.10;;;9.73;;
295;SDS011;132;48.770;9.200;2022-07-25T07:37:14;15.30;;;10.50;;
295;SDS011;132;48.770;9.200;2022-07-25T07:40:00;11.80;;;10.70;;
295;SDS011;132;48.770;9.200;2022-07-25T07:42:48;12.70;;;10.00;;
295;SDS011;132;48.770;9.200;2022-07-25T07:45:35;13.07;;;10.63;;
295;SDS011;132;48.770;9.200;2022-07-25T07:48:22;13.23;;;10.47;;
295;SDS011;132;48.770;9.200;2022-07-25T07:51:08;12.20;;;9.87;;
295;SDS011;132;48.770;9.200;2022-07-25T07:53:55;12.40;;;10.70;;
295;SDS011;132;48.770;9.200;2022-07-25T07:57:00;11.87;;;10.30;;
295;SDS011;132;48.770;9.200;2022-07-25T07:59:48;15.50;;;10.20;;
295;SDS011;132;48.770;9.200;2022-07-25T08:02:44;12.57;;;10.63;;
295;SDS011;132;48.770;9.200;2022-07-25T08:05:36;13.00;;;9.60;;
295;SDS011;132;48.770;9.200;2022-07-25T08:08:28;12.03;;;10.70;;
295;SDS011;132;48.770;9.200;2022-07-25T08:11:15;12.00;;;10.20;;
295;SDS011;132;48.770;9.200;2022-07-25T08:14:01;13.30;;;10.30;;
295;SDS011;132;48.770;9.200;2022-07-25T08:16:49;13.90;;;10.10;;
295;SDS011;132;48.770;9.200;2022-07-25T08:19:37;14.03;;;11.53;;
295;SDS011;132;48.770;9.200;2022-07-25T08:22:24;13.03;;;10.30;;
295;SDS011;132;48.770;9.200;2022-07-25T08:25:21;14.33;;;10.80;;
295;SDS011;132;48.770;9.200;2022-07-25T08:28:07;13.80;;;10.43;;
295;SDS011;132;48.770;9.200;2022-07-25T08:30:54;11.10;;;10.20;;
295;SDS011;132;48.770;9.200;2022-07-25T08:33:41;13.27;;;10.47;;
295;SDS011;132;48.770;9.200;2022-07-25T08:36:28;12.63;;;10.27;;
295;SDS011;132;48.770;9.200;2022-07-25T08:39:14;13.93;;;11.10;;
295;SDS011;132;48.770;9.200;2022-07-25T08:42:01;14.40;;;10.37;;
295;SDS011;132;48.770;9.200;2022-07-25T08:44:52;12.03;;;9.63;;
295;SDS011;132;48.770;9.200;2022-07-25T08:47:42;11.37;;;9.80;;
295;SDS011;132;48.770;9.200;2022-07-25T08:50:30;12.27;;;10.50;;
295;SDS011;132;48.770;9.200;2022-07-25T08:53:17;13.03;;;9.60;;
295;SDS011;132;48.770;9.200;2022-07-25T08:56:05;12.07;;;10.10;;
295;SDS011;132;48.770;9.200;2022-07-25T08:58:53;11.50;;;10.13;;
295;SDS011;132;48.770;9.200;2022-07-25T09:01:43;12.73;;;10.17;;
295;SDS011;132;48.770;9.200;2022-07-25T09:04:31;11.30;;;9.23;;
295;SDS011;132;48.770;9.200;2022-07-25T09:10:26;11.83;;;9.70;;
295;SDS011;132;48.770;9.200;2022-07-25T09:13:14;10.70;;;9.50;;
295;SDS011;132;48.770;9.200;2022-07-25T09:16:01;10.90;;;9.40;;
295;SDS011;132;48.770;9.200;2022-07-25T09:18:50;12.17;;;9.43;;
295;SDS011;132;48.770;9.200;2022-07-25T09:21:37;12.03;;;9.80;;
295;SDS011;132;48.770;9.200;2022-07-25T09:24:25;11.80;;;10.00;;
295;SDS011;132;48.770;9.200;2022-07-25T09:27:12;15.67;;;9.37;;
295;SDS011;132;48.770;9.200;2022-07-25T09:29:59;11.10;;;8.97;;
295;SDS011;132;48.770;9.200;2022-07-25T09:32:59;11.97;;;9.50;;
295;SDS011;132;48.770;9.200;2022-07-25T09:35:46;10.63;;;9.40;;
295;SDS011;132;48.770;9.200;2022-07-25T09:38:33;12.70;;;8.97;;
295;SDS011;132;48.770;9.200;2022-07-25T09:41:20;12.30;;;9.83;;
295;SDS011;132;48.770;9.200;2022-07-25T09:44:17;14.57;;;9.80;;
295;SDS011;132;48.770;9.200;2022-07-25T09:47:11;11.87;;;9.63;;
295;SDS011;132;48.770;9.200;2022-07-25T09:49:59;10.27;;;9.40;;
295;SDS011;132;48.770;9.200;2022-07-25T09:52:47;9.63;;;8.70;;
295;SDS011;132;48.770;9.200;2022-07-25T09:55:37;11.97;;;9.23;;
295;SDS011;132;48.770;9.200;2022-07-25T09:58:23;26.93;;;9.70;;
295;SDS011;132;48.770;9.200;2022-07-25T10:01:12;12.97;;;9.50;;
295;SDS011;132;48.770;9.200;2022-07-25T10:04:13;11.40;;;10.13;;
295;SDS011;132;48.770;9.200;2022-07-25T10:07:09;12.70;;;10.40;;
295;SDS011;132;48.770;9.200;2022-07-25T10:09:59;12.43;;;9.33;;
295;SDS011;132;48.770;9.200;2022-07-25T10:12:57;13.57;;;9.67;;
295;SDS011;132;48.770;9.200;2022-07-25T10:18:45;12.57;;;10.27;;
295;SDS011;132;48.770;9.200;2022-07-25T10:21:34;10.43;;;9.63;;
295;SDS011;132;48.770;9.200;2022-07-25T10:24:20;11.63;;;10.27;;
295;SDS011;132;48.770;9.200;2022-07-25T10:27:22;12.43;;;9.97;;
295;SDS011;132;48.770;9.200;2022-07-25T10:30:10;12.67;;;10.20;;
295;SDS011;132;48.770;9.200;2022-07-25T10:33:16;11.87;;;9.97;;
295;SDS011;132;48.770;9.200;2022-07-25T10:36:04;13.23;;;10.03;;
295;SDS011;132;48.770;9.200;2022-07-25T10:38:56;10.20;;;9.47;;
295;SDS011;132;48.770;9.200;2022-07-25T10:45:03;12.23;;;9.43;;
295;SDS011;132;48.770;9.200;2022-07-25T10:47:54;16.70;;;9.90;;
295;SDS011;132;48.770;9.200;2022-07-25T10:50:47;10.57;;;9.10;;
295;SDS011;132;48.770;9.200;2022-07-25T10:53:37;10.30;;;9.50;;
295;SDS011;132;48.770;9.200;2022-07-25T10:56:28;10.47;;;9.20;;
295;SDS011;132;48.770;9.200;2022-07-25T10:59:23;10.63;;;9.13;;
295;SDS011;132;48.770;9.200;2022-07-25T11:02:12;12.73;;;9.83;;
295;SDS011;132;48.770;9.200;2022-07-25T11:05:02;12.67;;;9.60;;
295;SDS011;132;48.770;9.200;2022-07-25T11:07:50;12.80;;;9.90;;
295;SDS011;132;48.770;9.200;2022-07-25T11:10:38;11.13;;;10.17;;
295;SDS011;132;48.770;9.200;2022-07-25T11:13:25;17.33;;;10.07;;
295;SDS011;132;48.770;9.200;2022-07-25T11:16:12;16.30;;;10.97;;
295;SDS011;132;48.770;9.200;2022-07-25T11:18:58;12.67;;;9.90;;
295;SDS011;132;48.770;9.200;2022-07-25T11:21:46;12.57;;;11.03;;
295;SDS011;132;48.770;9.200;2022-07-25T11:27:26;9.53;;;9.00;;
295;SDS011;132;48.770;9.200;2022-07-25T11:30:15;11.70;;;10.40;;
295;SDS011;132;48.770;9.200;2022-07-25T11:33:03;9.20;;;8.70;;
295;SDS011;132;48.770;9.200;2022-07-25T11:35:50;13.30;;;9.50;;
295;SDS011;132;48.770;9.200;2022-07-25T11:38:37;10.07;;;9.57;;
295;SDS011;132;48.770;9.200;2022-07-25T11:41:28;9.67;;;8.67;;
295;SDS011;132;48.770;9.200;2022-07-25T11:44:15;9.60;;;8.83;;
295;SDS011;132;48.770;9.200;2022-07-25T11:47:03;10.80;;;9.77;;
295;SDS011;132;48.770;9.200;2022-07-25T11:49:56;13.97;;;9.80;;
295;SDS011;132;48.770;9.200;2022-07-25T11:52:57;12.50;;;9.53;;
295;SDS011;132;48.770;9.200;2022-07-25T11:55:48;11.50;;;10.50;;
295;SDS011;132;48.770;9.200;2022-07-25T11:58:35;15.10;;;11.10;;
295;SDS011;132;48.770;9.200;2022-07-25T12:01:21;13.00;;;12.23;;
295;SDS011;132;48.770;9.200;2022-07-25T12:04:16;11.40;;;10.80;;
295;SDS011;132;48.770;9.200;2022-07-25T12:07:04;12.23;;;11.30;;
295;SDS011;132;48.770;9.200;2022-07-25T12:09:54;11.47;;;9.50;;
295;SDS011;132;48.770;9.200;2022-07-25T12:15:31;11.13;;;8.57;;
295;SDS011;132;48.770;9.200;2022-07-25T12:18:20;9.40;;;8.90;;
295;SDS011;132;48.770;9.200;2022-07-25T12:21:07;12.40;;;11.80;;
295;SDS011;132;48.770;9.200;2022-07-25T12:23:54;9.17;;;8.67;;
295;SDS011;132;48.770;9.200;2022-07-25T12:26:40;13.03;;;12.33;;
295;SDS011;132;48.770;9.200;2022-07-25T12:29:27;9.30;;;8.80;;
295;SDS011;132;48.770;9.200;2022-07-25T12:32:14;10.63;;;10.03;;
295;SDS011;132;48.770;9.200;2022-07-25T12:35:01;10.03;;;9.53;;
295;SDS011;132;48.770;9.200;2022-07-25T12:37:51;11.10;;;8.20;;
295;SDS011;132;48.770;9.200;2022-07-25T12:40:38;9.93;;;7.70;;
295;SDS011;132;48.770;9.200;2022-07-25T12:43:25;8.77;;;7.60;;
295;SDS011;132;48.770;9.200;2022-07-25T12:46:12;8.37;;;7.03;;
295;SDS011;132;48.770;9.200;2022-07-25T12:48:59;8.93;;;7.40;;
295;SDS011;132;48.770;9.200;2022-07-25T12:51:45;9.70;;;7.97;;
295;SDS011;132;48.770;9.200;2022-07-25T12:54:32;12.53;;;8.30;;
295;SDS011;132;48.770;9.200;2022-07-25T12:57:19;9.23;;;8.10;;
295;SDS011;132;48.770;9.200;2022-07-25T13:00:06;17.77;;;9.23;;
295;SDS011;132;48.770;9.200;2022-07-25T13:02:55;11.03;;;8.70;;
295;SDS011;132;48.770;9.200;2022-07-25T13:05:42;12.37;;;8.00;;
295;SDS011;132;48.770;9.200;2022-07-25T13:08:29;9.00;;;8.17;;
295;SDS011;132;48.770;9.200;2022-07-25T13:11:15;11.17;;;10.57;;
295;SDS011;132;48.770;9.200;2022-07-25T13:14:02;13.77;;;12.43;;
295;SDS011;132;48.770;9.200;2022-07-25T13:16:49;9.40;;;8.67;;
295;SDS011;132;48.770;9.200;2022-07-25T13:19:36;9.27;;;8.77;;
295;SDS011;132;48.770;9.200;2022-07-25T13:22:23;11.87;;;11.27;;
295;SDS011;132;48.770;9.200;2022-07-25T13:25:10;10.67;;;9.13;;
295;SDS011;132;48.770;9.200;2022-07-25T13:27:57;10.60;;;8.17;;
295;SDS011;132;48.770;9.200;2022-07-25T13:30:44;13.80;;;11.83;;
295;SDS011;132;48.770;9.200;2022-07-25T13:33:30;13.00;;;10.40;;
295;SDS011;132;48.770;9.200;2022-07-25T13:36:17;10.67;;;10.00;;
295;SDS011;132;48.770;9.200;2022-07-25T13:39:05;11.00;;;10.40;;
295;SDS011;132;48.770;9.200;2022-07-25T13:41:51;19.13;;;18.13;;
295;SDS011;132;48.770;9.200;2022-07-25T13:44:38;17.07;;;16.17;;
295;SDS011;132;48.770;9.200;2022-07-25T13:47:25;13.07;;;11.37;;
295;SDS011;132;48.770;9.200;2022-07-25T13:50:12;23.33;;;22.13;;
295;SDS011;132;48.770;9.200;2022-07-25T13:52:59;9.43;;;8.90;;
295;SDS011;132;48.770;9.200;2022-07-25T13:55:46;40.80;;;38.80;;
295;SDS011;132;48.770;9.200;2022-07-25T13:58:33;10.53;;;9.47;;
295;SDS011;132;48.770;9.200;2022-07-25T14:01:19;17.60;;;13.60;;
295;SDS011;132;48.770;9.200;2022-07-25T14:04:06;9.03;;;7.60;;
295;SDS011;132;48.770;9.200;2022-07-25T14:06:53;10.77;;;7.87;;
295;SDS011;132;48.770;9.200;2022-07-25T14:09:39;10.53;;;8.43;;
295;SDS011;132;48.770;9.200;2022-07-25T14:12:26;10.90;;;10.30;;
295;SDS011;132;48.770;9.200;2022-07-25T14:15:13;58.37;;;55.57;;
295;SDS011;132;48.770;9.200;2022-07-25T14:18:00;382.97;;;364.70;;
295;SDS011;132;48.770;9.200;2022-07-25T14:20:47;9.90;;;8.93;;
295;SDS011;132;48.770;9.200;2022-07-25T14:23:35;22.30;;;21.20;;
295;SDS011;132;48.770;9.200;2022-07-25T14:26:21;10.70;;;10.10;;
295;SDS011;132;48.770;9.200;2022-07-25T14:29:08;13.03;;;10.40;;
295;SDS011;132;48.770;9.200;2022-07-25T14:31:56;14.43;;;13.73;;
295;SDS011;132;48.770;9.200;2022-07-25T14:34:42;848.73;;;808.30;;
295;SDS011;132;48.770;9.200;2022-07-25T14:37:29;1049.80;;;998.67;;
295;SDS011;132;48.770;9.200;2022-07-25T14:40:16;1072.47;;;999.90;;
295;SDS011;132;48.770;9.200;2022-07-25T14:43:03;1068.13;;;999.90;;
295;SDS011;132;48.770;9.200;2022-07-25T14:45:49;1029.77;;;980.67;;
295;SDS011;132;48.770;9.200;2022-07-25T14:48:36;1018.97;;;970.40;;
295;SDS011;132;48.770;9.200;2022-07-25T14:51:23;1035.07;;;985.73;;
295;SDS011;132;48.770;9.200;2022-07-25T14:54:10;919.60;;;875.73;;
295;SDS011;132;48.770;9.200;2022-07-25T14:56:57;59.50;;;56.63;;
295;SDS011;132;48.770;9.200;2022-07-25T14:59:44;1059.43;;;999.90;;
295;SDS011;132;48.770;9.200;2022-07-25T15:02:30;1021.77;;;973.07;;
295;SDS011;132;48.770;9.200;2022-07-25T15:05:17;10.70;;;9.30;;
295;SDS011;132;48.770;9.200;2022-07-25T15:08:04;64.30;;;61.17;;
295;SDS011;132;48.770;9.200;2022-07-25T15:10:51;15.17;;;14.37;;
295;SDS011;132;48.770;9.200;2022-07-25T15:13:38;20.83;;;19.83;;
295;SDS011;132;48.770;9.200;2022-07-25T15:16:24;11.20;;;10.13;;
295;SDS011;132;48.770;9.200;2022-07-25T15:19:11;8.73;;;8.23;;
295;SDS011;132;48.770;9.200;2022-07-25T15:21:57;11.00;;;10.40;;
295;SDS011;132;48.770;9.200;2022-07-25T15:24:44;54.27;;;51.63;;
295;SDS011;132;48.770;9.200;2022-07-25T15:27:31;328.23;;;312.53;;
295;SDS011;132;48.770;9.200;2022-07-25T15:30:17;12.23;;;11.10;;
295;SDS011;132;48.770;9.200;2022-07-25T15:33:04;877.80;;;835.93;;
295;SDS011;132;48.770;9.200;2022-07-25T15:35:50;22.13;;;19.70;;
295;SDS011;132;48.770;9.200;2022-07-25T15:38:37;87.60;;;83.37;;
295;SDS011;132;48.770;9.200;2022-07-25T15:41:24;861.87;;;820.77;;
295;SDS011;132;48.770;9.200;2022-07-25T15:44:11;783.03;;;745.70;;
295;SDS011;132;48.770;9.200;2022-07-25T15:46:58;745.80;;;710.23;;
295;SDS011;132;48.770;9.200;2022-07-25T15:49:44;29.93;;;28.43;;
295;SDS011;132;48.770;9.200;2022-07-25T15:52:31;10.03;;;8.17;;
295;SDS011;132;48.770;9.200;2022-07-25T15:55:18;16.27;;;8.30;;
295;SDS011;132;48.770;9.200;2022-07-25T15:58:05;12.63;;;7.97;;
295;SDS011;132;48.770;9.200;2022-07-25T16:00:52;11.80;;;7.80;;
295;SDS011;132;48.770;9.200;2022-07-25T16:03:39;10.00;;;8.30;;
295;SDS011;132;48.770;9.200;2022-07-25T16:06:26;9.50;;;8.37;;
295;SDS011;132;48.770;9.200;2022-07-25T16:09:13;16.37;;;8.20;;
295;SDS011;132;48.770;9.200;2022-07-25T16:12:01;13.03;;;9.13;;
295;SDS011;132;48.770;9.200;2022-07-25T16:14:48;10.50;;;7.90;;
295;SDS011;132;48.770;9.200;2022-07-25T16:17:36;10.33;;;8.23;;
295;SDS011;132;48.770;9.200;2022-07-25T16:20:23;13.57;;;8.40;;
295;SDS011;132;48.770;9.200;2022-07-25T16:23:09;10.63;;;8.57;;
295;SDS011;132;48.770;9.200;2022-07-25T16:25:59;9.60;;;8.80;;
295;SDS011;132;48.770;9.200;2022-07-25T16:28:45;11.33;;;8.50;;
295;SDS011;132;48.770;9.200;2022-07-25T16:31:32;10.73;;;9.07;;
295;SDS011;132;48.770;9.200;2022-07-25T16:34:19;9.93;;;8.80;;
295;SDS011;132;48.770;9.200;2022-07-25T16:37:05;13.60;;;8.47;;
295;SDS011;132;48.770;9.200;2022-07-25T16:39:52;12.03;;;8.17;;
295;SDS011;132;48.770;9.200;2022-07-25T16:42:39;12.43;;;8.50;;
295;SDS011;132;48.770;9.200;2022-07-25T16:45:26;12.73;;;7.90;;
295;SDS011;132;48.770;9.200;2022-07-25T16:48:13;9.17;;;7.70;;
295;SDS011;132;48.770;9.200;2022-07-25T16:50:59;9.90;;;7.80;;
295;SDS011;132;48.770;9.200;2022-07-25T16:53:46;10.47;;;7.77;;
295;SDS011;132;48.770;9.200;2022-07-25T16:56:33;12.13;;;7.47;;
295;SDS011;132;48.770;9.200;2022-07-25T16:59:21;9.40;;;8.00;;
295;SDS011;132;48.770;9.200;2022-07-25T17:02:08;8.10;;;7.70;;
295;SDS011;132;48.770;9.200;2022-07-25T17:04:55;10.93;;;9.20;;
295;SDS011;132;48.770;9.200;2022-07-25T17:07:42;11.00;;;8.50;;
295;SDS011;132;48.770;9.200;2022-07-25T17:10:28;9.53;;;8.07;;
295;SDS011;132;48.770;9.200;2022-07-25T17:13:15;14.97;;;8.10;;
295;SDS011;132;48.770;9.200;2022-07-25T17:16:02;9.20;;;8.00;;
295;SDS011;132;48.770;9.200;2022-07-25T17:18:50;13.73;;;7.47;;
295;SDS011;132;48.770;9.200;2022-07-25T17:21:36;12.27;;;7.30;;
295;SDS011;132;48.770;9.200;2022-07-25T17:24:23;9.37;;;7.63;;
295;SDS011;132;48.770;9.200;2022-07-25T17:27:10;9.87;;;7.20;;
295;SDS011;132;48.770;9.200;2022-07-25T17:29:56;8.90;;;6.83;;
295;SDS011;132;48.770;9.200;2022-07-25T17:32:43;9.00;;;7.37;;
295;SDS011;132;48.770;9.200;2022-07-25T17:35:29;14.63;;;7.77;;
295;SDS011;132;48.770;9.200;2022-07-25T17:38:16;10.50;;;7.73;;
295;SDS011;132;48.770;9.200;2022-07-25T17:41:03;9.63;;;7.10;;
295;SDS011;132;48.770;9.200;2022-07-25T17:43:50;9.10;;;7.43;;
295;SDS011;132;48.770;9.200;2022-07-25T17:46:36;11.37;;;6.80;;